createdAt,value
2022-08-19T00:01:29.262Z,100441.56
2022-08-19T00:05:32.605Z,100436.38
2022-08-19T00:09:34.624Z,100440.09
2022-08-19T00:13:36.411Z,100434.38
2022-08-19T00:17:41.949Z,100429.66
2022-08-19T00:21:44.145Z,100428.00
2022-08-19T00:25:48.778Z,100424.31
2022-08-19T00:29:52.715Z,100423.44
2022-08-19T00:33:55.065Z,100416.81
2022-08-19T00:37:57.068Z,100414.97
2022-08-19T00:41:58.534Z,100395.25
2022-08-19T00:46:00.310Z,100401.19
2022-08-19T00:50:01.818Z,100399.13
2022-08-19T00:54:04.736Z,100398.59
2022-08-19T00:58:12.885Z,100399.91
2022-08-19T01:02:16.411Z,100392.19
2022-08-19T01:06:19.877Z,100393.47
2022-08-19T01:10:27.610Z,100393.44
2022-08-19T01:14:30.119Z,100402.69
2022-08-19T01:18:33.386Z,100425.34
2022-08-19T01:22:45.168Z,100437.06
2022-08-19T01:26:48.165Z,100430.03
2022-08-19T01:30:51.083Z,100430.22
2022-08-19T01:34:52.731Z,100435.50
2022-08-19T01:38:56.238Z,100429.75
2022-08-19T01:42:59.018Z,100428.00
2022-08-19T01:47:00.481Z,100433.06
2022-08-19T01:51:02.187Z,100434.28
2022-08-19T01:55:06.759Z,100440.28
2022-08-19T01:59:13.072Z,100448.31
2022-08-19T02:03:14.879Z,100416.97
2022-08-19T02:07:16.317Z,100406.47
2022-08-19T02:11:27.918Z,100389.13
2022-08-19T02:15:33.021Z,100370.03
2022-08-19T02:19:34.598Z,100356.53
2022-08-19T02:23:36.062Z,100341.25
2022-08-19T02:27:38.058Z,100324.88
2022-08-19T02:31:39.583Z,100323.75
2022-08-19T02:35:45.191Z,100313.50
2022-08-19T02:39:46.902Z,100303.66
2022-08-19T02:44:14.270Z,100302.00
2022-08-19T02:48:17.937Z,100310.88
2022-08-19T02:52:24.266Z,100319.25
2022-08-19T02:56:27.994Z,100330.69
2022-08-19T03:00:29.487Z,100340.88
2022-08-19T03:04:30.936Z,100341.97
2022-08-19T03:08:32.447Z,100347.94
2022-08-19T03:12:37.438Z,100346.25
2022-08-19T03:16:48.526Z,100353.28
2022-08-19T03:20:53.831Z,100343.63
2022-08-19T03:24:55.299Z,100338.69
2022-08-19T03:28:58.711Z,100338.75
2022-08-19T03:33:00.392Z,100327.00
2022-08-19T03:37:06.999Z,100323.03
2022-08-19T03:41:12.552Z,100315.28
2022-08-19T03:45:14.015Z,100326.03
2022-08-19T03:49:16.228Z,100332.69
2022-08-19T03:53:20.026Z,100318.44
2022-08-19T03:57:21.577Z,100326.81
2022-08-19T04:01:35.126Z,100327.09
2022-08-19T04:05:38.847Z,100328.81
2022-08-19T04:09:40.417Z,100332.19
2022-08-19T04:13:44.327Z,100358.75
2022-08-19T04:17:45.878Z,100348.22
2022-08-19T04:21:50.965Z,100349.63
2022-08-19T04:25:52.506Z,100362.28
2022-08-19T04:29:54.599Z,100371.69
2022-08-19T04:34:00.938Z,100362.66
2022-08-19T04:38:02.425Z,100359.72
2022-08-19T04:42:22.441Z,100342.22
2022-08-19T04:46:40.519Z,100347.94
2022-08-19T04:50:58.644Z,100362.56
2022-08-19T04:55:00.493Z,100351.88
2022-08-19T04:59:05.230Z,100351.19
2022-08-19T05:03:07.713Z,100338.06
2022-08-19T05:07:10.271Z,100338.63
2022-08-19T05:11:16.067Z,100335.66
2022-08-19T05:15:17.736Z,100333.69
2022-08-19T05:19:37.906Z,100321.53
2022-08-19T05:23:39.564Z,100318.34
2022-08-19T05:27:42.679Z,100324.41
2022-08-19T05:31:44.790Z,100322.41
2022-08-19T05:35:47.169Z,100326.16
2022-08-19T05:39:55.050Z,100317.13
2022-08-19T05:43:58.485Z,100326.50
2022-08-19T05:47:59.951Z,100336.47
2022-08-19T05:52:07.053Z,100349.38
2022-08-19T05:56:12.300Z,100343.28
2022-08-19T06:00:14.825Z,100351.97
2022-08-19T06:04:16.262Z,100359.22
2022-08-19T06:08:19.260Z,100355.69
2022-08-19T06:12:20.758Z,100339.56
2022-08-19T06:16:23.339Z,100334.16
2022-08-19T06:20:52.368Z,100334.13
2022-08-19T06:24:46.245Z,100336.63
2022-08-19T06:28:50.617Z,100347.47
2022-08-19T06:32:52.282Z,100362.28
2022-08-19T06:36:56.273Z,100374.47
2022-08-19T06:41:07.634Z,100389.16
2022-08-19T06:45:09.867Z,100402.94
2022-08-19T06:49:14.925Z,100405.41
2022-08-19T06:53:16.549Z,100398.03
2022-08-19T06:57:18.056Z,100398.66
2022-08-19T07:01:20.806Z,100394.69
2022-08-19T07:05:22.613Z,100387.00
2022-08-19T07:09:24.093Z,100377.97
2022-08-19T07:13:25.605Z,100366.47
2022-08-19T07:17:27.578Z,100384.06
2022-08-19T07:21:29.889Z,100398.16
2022-08-19T07:25:32.114Z,100412.78
2022-08-19T07:29:36.359Z,100417.31
2022-08-19T07:33:39.872Z,100418.34
2022-08-19T07:37:45.144Z,100414.28
2022-08-19T07:41:47.800Z,100413.72
2022-08-19T07:45:49.417Z,100427.00
2022-08-19T07:49:50.873Z,100424.72
2022-08-19T07:53:52.402Z,100432.94
2022-08-19T07:57:54.575Z,100440.72
2022-08-19T08:01:57.432Z,100446.41
2022-08-19T08:06:17.270Z,100446.56
2022-08-19T08:10:21.089Z,100461.03
2022-08-19T08:14:29.697Z,100463.53
2022-08-19T08:18:42.365Z,100470.53
2022-08-19T08:23:04.217Z,100470.81
2022-08-19T08:27:11.256Z,100470.25
2022-08-19T08:31:12.975Z,100467.94
2022-08-19T08:35:17.627Z,100474.28
2022-08-19T08:39:22.237Z,100475.31
2022-08-19T08:43:38.030Z,100469.41
2022-08-19T08:47:42.231Z,100483.69
2022-08-19T08:51:59.269Z,100487.91
2022-08-19T08:56:04.133Z,100480.72
2022-08-19T09:00:11.042Z,100491.91
2022-08-19T09:04:18.377Z,100496.66
2022-08-19T09:08:58.449Z,100486.84
2022-08-19T09:13:28.410Z,100487.69
2022-08-19T09:17:34.562Z,100484.47
2022-08-19T09:21:39.219Z,100480.84
2022-08-19T09:25:42.327Z,100485.19
2022-08-19T09:29:43.807Z,100474.34
2022-08-19T09:33:45.564Z,100469.56
2022-08-19T09:37:47.042Z,100464.38
2022-08-19T09:41:50.599Z,100473.66
2022-08-19T09:45:53.528Z,100469.53
2022-08-19T09:49:55.942Z,100472.44
2022-08-19T09:54:02.068Z,100475.09
2022-08-19T09:58:06.461Z,100475.78
2022-08-19T10:02:11.014Z,100471.81
2022-08-19T10:06:14.982Z,100468.78
2022-08-19T10:10:18.953Z,100472.16
2022-08-19T10:14:24.276Z,100463.25
2022-08-19T10:18:26.838Z,100466.91
2022-08-19T10:22:28.288Z,100466.34
2022-08-19T10:26:34.492Z,100475.41
2022-08-19T10:30:42.908Z,100467.16
2022-08-19T10:34:48.094Z,100476.53
2022-08-19T10:38:56.622Z,100478.16
2022-08-19T10:42:58.515Z,100466.19
2022-08-19T10:47:00.441Z,100474.63
2022-08-19T10:51:22.720Z,100467.09
2022-08-19T10:55:51.560Z,100474.75
2022-08-19T10:59:53.156Z,100471.03
2022-08-19T11:03:54.630Z,100481.88
2022-08-19T11:07:56.258Z,100491.25
2022-08-19T11:11:58.384Z,100488.69
2022-08-19T11:16:14.872Z,100487.22
2022-08-19T11:20:16.424Z,100485.59
2022-08-19T11:24:21.967Z,100487.19
2022-08-19T11:28:23.447Z,100495.47
2022-08-19T11:32:25.475Z,100488.75
2022-08-19T11:36:27.610Z,100482.53
2022-08-19T11:40:29.116Z,100481.00
2022-08-19T11:44:31.361Z,100482.03
2022-08-19T11:48:32.867Z,100496.16
2022-08-19T11:52:34.495Z,100507.34
2022-08-19T11:56:38.424Z,100518.66
2022-08-19T12:00:41.065Z,100515.34
2022-08-19T12:04:44.785Z,100519.19
2022-08-19T12:08:46.651Z,100513.66
2022-08-19T12:12:58.043Z,100527.00
2022-08-19T12:17:00.992Z,100530.53
2022-08-19T12:21:02.747Z,100529.50
2022-08-19T12:25:05.955Z,100536.50
2022-08-19T12:29:09.352Z,100534.72
2022-08-19T12:33:10.804Z,100528.16
2022-08-19T12:37:13.127Z,100543.63
2022-08-19T12:41:16.363Z,100537.22
2022-08-19T12:45:17.896Z,100530.59
2022-08-19T12:49:53.067Z,100535.38
2022-08-19T12:53:41.340Z,100526.88
2022-08-19T12:57:42.757Z,100523.88
2022-08-19T13:01:45.077Z,100532.78
2022-08-19T13:05:46.548Z,100553.84
2022-08-19T13:09:48.053Z,100557.13
2022-08-19T13:13:51.738Z,100556.09
2022-08-19T13:17:56.968Z,100552.94
2022-08-19T13:22:01.755Z,100554.84
2022-08-19T13:26:06.505Z,100543.00
2022-08-19T13:30:29.413Z,100550.56
2022-08-19T13:34:36.032Z,100539.34
2022-08-19T13:38:38.803Z,100546.50
2022-08-19T13:42:40.837Z,100538.81
2022-08-19T13:46:45.984Z,100542.31
2022-08-19T13:50:49.017Z,100535.53
2022-08-19T13:54:50.426Z,100534.06
2022-08-19T13:58:51.855Z,100542.19
2022-08-19T14:02:55.514Z,100521.59
2022-08-19T14:06:57.035Z,100531.63
2022-08-19T14:10:58.887Z,100532.56
2022-08-19T14:15:10.577Z,100533.00
2022-08-19T14:19:12.009Z,100536.28
2022-08-19T14:23:14.572Z,100528.41
2022-08-19T14:27:16.054Z,100534.22
2022-08-19T14:31:26.788Z,100522.50
2022-08-19T14:35:36.793Z,100532.47
2022-08-19T14:39:39.251Z,100533.78
2022-08-19T14:43:40.922Z,100525.16
2022-08-19T14:47:42.433Z,100537.41
2022-08-19T14:51:47.864Z,100539.78
2022-08-19T14:55:49.378Z,100540.78
2022-08-19T14:59:50.899Z,100562.47
2022-08-19T15:03:55.794Z,100565.59
2022-08-19T15:07:57.581Z,100578.41
2022-08-19T15:12:00.635Z,100574.97
2022-08-19T15:16:02.481Z,100581.41
2022-08-19T15:20:05.338Z,100588.22
2022-08-19T15:24:07.069Z,100594.88
2022-08-19T15:28:10.469Z,100597.66
2022-08-19T15:32:11.972Z,100607.47
2022-08-19T15:36:13.467Z,100609.22
2022-08-19T15:40:21.276Z,100605.34
2022-08-19T15:44:22.897Z,100593.69
2022-08-19T15:48:24.323Z,100589.69
2022-08-19T15:52:25.751Z,100593.06
2022-08-19T15:56:27.718Z,100584.88
2022-08-19T16:00:50.057Z,100592.63
2022-08-19T16:05:12.943Z,100587.22
2022-08-19T16:09:16.269Z,100581.53
2022-08-19T16:13:18.086Z,100575.03
2022-08-19T16:17:19.588Z,100586.19
2022-08-19T16:21:23.004Z,100589.72
2022-08-19T16:25:29.901Z,100600.13
2022-08-19T16:29:34.608Z,100603.72
2022-08-19T16:33:41.401Z,100598.75
2022-08-19T16:37:42.880Z,100603.25
2022-08-19T16:41:45.737Z,100603.94
2022-08-19T16:45:49.387Z,100605.63
2022-08-19T16:49:52.966Z,100600.97
2022-08-19T16:53:56.602Z,100597.69
2022-08-19T16:57:58.088Z,100603.59
2022-08-19T17:01:59.629Z,100608.47
2022-08-19T17:06:03.537Z,100598.31
2022-08-19T17:10:06.102Z,100604.28
2022-08-19T17:14:08.374Z,100595.91
2022-08-19T17:18:12.482Z,100601.31
2022-08-19T17:22:13.947Z,100609.94
2022-08-19T17:26:18.574Z,100617.91
2022-08-19T17:30:22.501Z,100601.13
2022-08-19T17:34:28.104Z,100602.72
2022-08-19T17:38:33.053Z,100615.50
2022-08-19T17:42:36.566Z,100626.19
2022-08-19T17:46:38.111Z,100625.47
2022-08-19T17:50:40.391Z,100619.47
2022-08-19T17:54:42.136Z,100631.53
2022-08-19T17:58:45.007Z,100639.97
2022-08-19T18:02:55.677Z,100639.81
2022-08-19T18:07:04.184Z,100649.59
2022-08-19T18:11:09.514Z,100646.59
2022-08-19T18:15:11.731Z,100655.41
2022-08-19T18:19:13.315Z,100642.13
2022-08-19T18:23:44.676Z,100645.13
2022-08-19T18:27:36.940Z,100651.66
2022-08-19T18:31:38.799Z,100659.44
2022-08-19T18:35:45.483Z,100668.41
2022-08-19T18:40:05.267Z,100667.47
2022-08-19T18:44:25.234Z,100674.75
2022-08-19T18:48:48.831Z,100671.94
2022-08-19T18:52:50.349Z,100684.53
2022-08-19T18:56:55.616Z,100682.84
2022-08-19T19:00:57.554Z,100680.97
2022-08-19T19:05:00.349Z,100698.19
2022-08-19T19:09:04.596Z,100700.44
2022-08-19T19:13:06.107Z,100716.41
2022-08-19T19:17:14.773Z,100722.50
2022-08-19T19:21:16.329Z,100720.06
2022-08-19T19:25:19.881Z,100722.25
2022-08-19T19:29:21.696Z,100720.13
2022-08-19T19:33:23.682Z,100711.19
2022-08-19T19:37:25.274Z,100723.88
2022-08-19T19:41:26.854Z,100736.94
2022-08-19T19:45:30.322Z,100751.09
2022-08-19T19:49:32.254Z,100737.34
2022-08-19T19:53:33.850Z,100722.25
2022-08-19T19:57:35.440Z,100733.75
2022-08-19T20:01:36.973Z,100742.34
2022-08-19T20:05:39.385Z,100738.34
2022-08-19T20:09:58.817Z,100731.75
2022-08-19T20:14:05.142Z,100748.56
2022-08-19T20:18:06.621Z,100740.59
2022-08-19T20:22:08.338Z,100741.41
2022-08-19T20:26:10.295Z,100731.91
2022-08-19T20:30:24.872Z,100718.78
2022-08-19T20:34:27.946Z,100719.38
2022-08-19T20:38:29.422Z,100727.09
2022-08-19T20:42:30.880Z,100721.78
2022-08-19T20:46:32.724Z,100727.09
2022-08-19T20:50:35.845Z,100721.97
2022-08-19T20:54:37.324Z,100715.03
2022-08-19T20:58:38.907Z,100703.91
2022-08-19T21:02:40.408Z,100699.34
2022-08-19T21:06:45.332Z,100697.97
2022-08-19T21:10:49.357Z,100698.50
2022-08-19T21:14:50.798Z,100711.63
2022-08-19T21:18:53.220Z,100705.47
2022-08-19T21:22:54.679Z,100732.53
2022-08-19T21:26:56.136Z,100748.63
2022-08-19T21:30:59.145Z,100753.16
2022-08-19T21:35:02.221Z,100750.81
2022-08-19T21:39:04.207Z,100744.75
2022-08-19T21:43:06.595Z,100734.03
2022-08-19T21:47:08.182Z,100741.78
2022-08-19T21:51:12.148Z,100751.50
2022-08-19T21:55:14.661Z,100749.78
2022-08-19T21:59:17.022Z,100746.06
2022-08-19T22:03:19.089Z,100744.53
2022-08-19T22:07:22.128Z,100729.81
2022-08-19T22:11:25.368Z,100733.06
2022-08-19T22:15:29.132Z,100727.84
2022-08-19T22:19:30.590Z,100711.38
2022-08-19T22:23:32.380Z,100725.91
2022-08-19T22:27:34.206Z,100724.53
2022-08-19T22:31:37.515Z,100724.88
2022-08-19T22:35:41.139Z,100731.38
2022-08-19T22:39:42.639Z,100728.50
2022-08-19T22:43:48.355Z,100734.22
2022-08-19T22:47:49.817Z,100724.63
2022-08-19T22:52:09.817Z,100715.22
2022-08-19T22:56:15.373Z,100719.97
2022-08-19T23:00:17.110Z,100722.09
2022-08-19T23:04:18.572Z,100727.69
2022-08-19T23:08:20.060Z,100729.19
2022-08-19T23:12:31.506Z,100728.63
2022-08-19T23:16:34.809Z,100721.41
2022-08-19T23:20:38.732Z,100726.31
2022-08-19T23:24:40.189Z,100730.25
2022-08-19T23:29:00.017Z,100733.63
2022-08-19T23:33:11.024Z,100735.69
2022-08-19T23:37:14.834Z,100720.13
2022-08-19T23:41:18.385Z,100714.03
2022-08-19T23:45:22.943Z,100688.47
2022-08-19T23:49:27.582Z,100690.50
2022-08-19T23:53:29.448Z,100694.75
2022-08-19T23:57:30.968Z,100709.50
